createdAt,value
2017-08-18T00:00:48.779Z,0
2017-08-18T00:01:49.069Z,0
2017-08-18T00:02:49.432Z,0
2017-08-18T00:03:49.465Z,0
2017-08-18T00:04:49.052Z,0
2017-08-18T00:05:49.060Z,0
2017-08-18T00:06:49.030Z,0
2017-08-18T00:07:49.310Z,0
2017-08-18T00:08:49.300Z,0
2017-08-18T00:09:48.962Z,0
2017-08-18T00:10:48.630Z,0
2017-08-18T00:11:48.669Z,0
2017-08-18T00:12:48.303Z,0
2017-08-18T00:13:48.961Z,0
2017-08-18T00:14:48.563Z,0
2017-08-18T00:15:49.301Z,0
2017-08-18T00:16:48.553Z,0
2017-08-18T00:17:48.821Z,0
2017-08-18T00:18:48.831Z,0
2017-08-18T00:19:49.209Z,0
2017-08-18T00:20:48.494Z,0
2017-08-18T00:21:49.117Z,0
2017-08-18T00:22:48.447Z,0
2017-08-18T00:23:48.740Z,0
2017-08-18T00:24:49.114Z,0
2017-08-18T00:25:48.734Z,0
2017-08-18T00:26:48.719Z,0
2017-08-18T00:27:48.380Z,0
2017-08-18T00:28:48.688Z,0
2017-08-18T00:29:48.352Z,0
2017-08-18T00:30:48.651Z,0
2017-08-18T00:31:48.640Z,0
2017-08-18T00:32:48.384Z,0
2017-08-18T00:33:48.290Z,0
2017-08-18T00:34:48.280Z,0
2017-08-18T00:35:48.577Z,0
2017-08-18T00:36:48.361Z,0
2017-08-18T00:37:49.083Z,0
2017-08-18T00:38:48.280Z,0
2017-08-18T00:39:48.529Z,0
2017-08-18T00:40:48.810Z,0
2017-08-18T00:41:47.877Z,0
2017-08-18T00:42:48.473Z,0
2017-08-18T00:43:48.454Z,0
2017-08-18T00:44:48.461Z,0
2017-08-18T00:45:48.445Z,0
2017-08-18T00:46:48.660Z,0
2017-08-18T00:47:48.410Z,0
2017-08-18T00:48:48.716Z,0
2017-08-18T00:49:48.390Z,0
2017-08-18T00:50:48.051Z,0
2017-08-18T00:51:48.350Z,0
2017-08-18T00:52:48.336Z,0
2017-08-18T00:53:48.321Z,0
2017-08-18T00:54:48.328Z,0
2017-08-18T00:55:47.986Z,0
2017-08-18T00:56:48.286Z,0
2017-08-18T00:57:48.323Z,0
2017-08-18T00:58:47.943Z,0
2017-08-18T00:59:48.241Z,0
2017-08-18T01:00:48.221Z,0
2017-08-18T01:01:48.519Z,0
2017-08-18T01:02:48.491Z,0
2017-08-18T01:03:47.872Z,0
2017-08-18T01:04:48.171Z,0
2017-08-18T01:05:48.157Z,0
2017-08-18T01:06:48.153Z,0
2017-08-18T01:07:48.122Z,0
2017-08-18T01:08:48.108Z,0
2017-08-18T01:09:48.091Z,0
2017-08-18T01:10:48.070Z,0
2017-08-18T01:11:48.119Z,0
2017-08-18T01:12:48.058Z,0
2017-08-18T01:13:47.437Z,0
2017-08-18T01:14:48.032Z,0
2017-08-18T01:15:48.082Z,0
2017-08-18T01:16:48.009Z,0
2017-08-18T01:17:47.990Z,0
2017-08-18T01:18:47.972Z,0
2017-08-18T01:19:47.951Z,0
2017-08-18T01:20:48.240Z,0
2017-08-18T01:21:47.928Z,0
2017-08-18T01:22:48.218Z,0
2017-08-18T01:23:48.202Z,0
2017-08-18T01:24:47.570Z,0
2017-08-18T01:25:48.179Z,0
2017-08-18T01:26:48.160Z,0
2017-08-18T01:27:47.852Z,0
2017-08-18T01:28:48.118Z,0
2017-08-18T01:29:48.122Z,0
2017-08-18T01:30:48.117Z,0
2017-08-18T01:31:48.074Z,0
2017-08-18T01:32:48.076Z,0
2017-08-18T01:33:48.085Z,0
2017-08-18T01:34:48.082Z,0
2017-08-18T01:35:47.732Z,0
2017-08-18T01:36:48.072Z,0
2017-08-18T01:37:48.003Z,0
2017-08-18T01:38:48.073Z,0
2017-08-18T01:39:47.995Z,0
2017-08-18T01:40:48.024Z,0
2017-08-18T01:41:47.082Z,0
2017-08-18T01:42:48.019Z,0
2017-08-18T01:43:47.300Z,0
2017-08-18T01:44:47.672Z,0
2017-08-18T01:45:47.899Z,0
2017-08-18T01:46:47.263Z,0
2017-08-18T01:47:47.583Z,0
2017-08-18T01:48:47.241Z,0
2017-08-18T01:49:47.579Z,0
2017-08-18T01:50:47.859Z,0
2017-08-18T01:51:47.912Z,0
2017-08-18T01:52:47.898Z,0
2017-08-18T01:53:47.461Z,0
2017-08-18T01:54:46.846Z,0
2017-08-18T01:55:47.140Z,0
2017-08-18T01:56:47.105Z,0
2017-08-18T01:57:46.790Z,0
2017-08-18T01:58:47.381Z,0
2017-08-18T01:59:47.750Z,0
2017-08-18T02:00:47.413Z,0
2017-08-18T02:01:47.703Z,0
2017-08-18T02:02:47.030Z,0
2017-08-18T02:03:47.672Z,0
2017-08-18T02:04:47.070Z,0
2017-08-18T02:05:47.710Z,0
2017-08-18T02:06:47.269Z,0
2017-08-18T02:07:47.572Z,0
2017-08-18T02:08:47.542Z,0
2017-08-18T02:09:47.230Z,0
2017-08-18T02:10:47.522Z,0
2017-08-18T02:11:46.920Z,0
2017-08-18T02:12:47.485Z,0
2017-08-18T02:13:46.928Z,0
2017-08-18T02:14:46.839Z,0
2017-08-18T02:15:47.501Z,0
2017-08-18T02:16:46.810Z,0
2017-08-18T02:17:47.119Z,0
2017-08-18T02:18:46.779Z,0
2017-08-18T02:19:46.789Z,0
2017-08-18T02:20:47.071Z,0
2017-08-18T02:21:47.365Z,0
2017-08-18T02:22:47.345Z,0
2017-08-18T02:23:47.350Z,0
2017-08-18T02:24:47.334Z,0
2017-08-18T02:25:46.983Z,0
2017-08-18T02:26:46.982Z,0
2017-08-18T02:27:47.313Z,0
2017-08-18T02:28:46.962Z,0
2017-08-18T02:29:47.240Z,0
2017-08-18T02:30:46.950Z,0
2017-08-18T02:31:47.211Z,0
2017-08-18T02:32:46.593Z,0
2017-08-18T02:33:46.633Z,0
2017-08-18T02:34:46.551Z,0
2017-08-18T02:35:46.950Z,0
2017-08-18T02:36:46.828Z,0
2017-08-18T02:37:47.130Z,0
2017-08-18T02:38:47.116Z,0
2017-08-18T02:39:46.801Z,0
2017-08-18T02:40:46.771Z,0
2017-08-18T02:41:46.761Z,0
2017-08-18T02:42:46.761Z,0
2017-08-18T02:43:46.759Z,0
2017-08-18T02:44:47.042Z,0
2017-08-18T02:45:46.710Z,0
2017-08-18T02:46:46.789Z,0
2017-08-18T02:47:47.032Z,0
2017-08-18T02:48:46.971Z,0
2017-08-18T02:49:46.031Z,0
2017-08-18T02:50:46.640Z,0
2017-08-18T02:51:46.931Z,0
2017-08-18T02:52:46.710Z,0
2017-08-18T02:53:46.580Z,0
2017-08-18T02:54:46.872Z,0
2017-08-18T02:55:46.889Z,0
2017-08-18T02:56:46.866Z,0
2017-08-18T02:57:46.208Z,0
2017-08-18T02:58:45.904Z,0
2017-08-18T02:59:46.512Z,0
2017-08-18T03:00:45.880Z,0
2017-08-18T03:01:46.154Z,0
2017-08-18T03:02:46.490Z,0
2017-08-18T03:03:46.452Z,0
2017-08-18T03:04:46.729Z,0
2017-08-18T03:05:46.700Z,0
2017-08-18T03:06:45.781Z,0
2017-08-18T03:07:46.672Z,0
2017-08-18T03:08:46.677Z,0
2017-08-18T03:09:46.676Z,0
2017-08-18T03:10:46.342Z,0
2017-08-18T03:11:46.005Z,0
2017-08-18T03:12:46.320Z,0
2017-08-18T03:13:45.981Z,0
2017-08-18T03:14:46.580Z,0
2017-08-18T03:15:46.849Z,0
2017-08-18T03:16:45.978Z,0
2017-08-18T03:17:46.220Z,0
2017-08-18T03:18:46.611Z,0
2017-08-18T03:19:46.189Z,0
2017-08-18T03:20:45.593Z,0
2017-08-18T03:21:46.180Z,0
2017-08-18T03:22:46.600Z,0
2017-08-18T03:23:45.830Z,0
2017-08-18T03:24:46.119Z,0
2017-08-18T03:25:45.809Z,0
2017-08-18T03:26:46.130Z,0
2017-08-18T03:27:46.075Z,0
2017-08-18T03:28:46.174Z,0
2017-08-18T03:29:46.359Z,0
2017-08-18T03:30:46.450Z,0
2017-08-18T03:31:45.710Z,0
2017-08-18T03:32:46.029Z,0
2017-08-18T03:33:45.681Z,0
2017-08-18T03:34:45.761Z,0
2017-08-18T03:35:46.360Z,0
2017-08-18T03:36:46.477Z,0
2017-08-18T03:37:45.672Z,0
2017-08-18T03:38:45.940Z,0
2017-08-18T03:39:45.929Z,0
2017-08-18T03:40:45.603Z,0
2017-08-18T03:41:45.919Z,0
2017-08-18T03:42:45.562Z,0
2017-08-18T03:43:45.571Z,0
2017-08-18T03:44:45.858Z,0
2017-08-18T03:45:46.170Z,0
2017-08-18T03:46:45.790Z,0
2017-08-18T03:47:46.129Z,0
2017-08-18T03:48:46.280Z,0
2017-08-18T03:49:45.755Z,0
2017-08-18T03:50:45.929Z,0
2017-08-18T03:51:45.531Z,0
2017-08-18T03:52:45.992Z,0
2017-08-18T03:53:46.039Z,4
2017-08-18T03:54:45.663Z,4
2017-08-18T03:55:46.020Z,0
2017-08-18T03:56:45.634Z,4
2017-08-18T03:57:45.631Z,4
2017-08-18T03:58:45.610Z,4
2017-08-18T03:59:45.603Z,4
2017-08-18T04:00:45.603Z,8
2017-08-18T04:01:45.870Z,8
2017-08-18T04:02:45.931Z,8
2017-08-18T04:03:45.551Z,12
2017-08-18T04:04:45.541Z,8
2017-08-18T04:05:45.828Z,12
2017-08-18T04:06:45.798Z,12
2017-08-18T04:07:45.790Z,16
2017-08-18T04:08:45.810Z,12
2017-08-18T04:09:45.151Z,12
2017-08-18T04:10:45.128Z,16
2017-08-18T04:11:45.411Z,16
2017-08-18T04:12:45.701Z,16
2017-08-18T04:13:45.426Z,20
2017-08-18T04:14:45.712Z,24
2017-08-18T04:15:45.360Z,24
2017-08-18T04:16:45.642Z,24
2017-08-18T04:17:45.621Z,28
2017-08-18T04:18:45.611Z,32
2017-08-18T04:19:45.290Z,36
2017-08-18T04:20:45.592Z,40
2017-08-18T04:21:45.584Z,48
2017-08-18T04:22:45.566Z,48
2017-08-18T04:23:45.532Z,52
2017-08-18T04:24:45.522Z,56
2017-08-18T04:25:45.512Z,60
2017-08-18T04:26:45.209Z,60
2017-08-18T04:27:45.484Z,60
2017-08-18T04:28:44.550Z,64
2017-08-18T04:29:45.135Z,72
2017-08-18T04:30:45.141Z,72
2017-08-18T04:31:45.232Z,76
2017-08-18T04:32:45.441Z,76
2017-08-18T04:33:44.782Z,80
2017-08-18T04:34:45.161Z,88
2017-08-18T04:35:45.361Z,96
2017-08-18T04:36:45.074Z,100
2017-08-18T04:37:44.711Z,100
2017-08-18T04:38:45.027Z,108
2017-08-18T04:39:45.009Z,124
2017-08-18T04:40:44.979Z,136
2017-08-18T04:41:45.261Z,156
2017-08-18T04:42:44.940Z,172
2017-08-18T04:43:45.251Z,184
2017-08-18T04:44:45.261Z,192
2017-08-18T04:45:44.607Z,192
2017-08-18T04:46:45.213Z,200
2017-08-18T04:47:45.202Z,204
2017-08-18T04:48:44.559Z,204
2017-08-18T04:49:45.152Z,204
2017-08-18T04:50:45.136Z,220
2017-08-18T04:51:45.132Z,220
2017-08-18T04:52:45.112Z,224
2017-08-18T04:53:44.800Z,244
2017-08-18T04:54:45.082Z,268
2017-08-18T04:55:44.774Z,292
2017-08-18T04:56:44.441Z,296
2017-08-18T04:57:44.751Z,280
2017-08-18T04:58:44.091Z,256
2017-08-18T04:59:45.066Z,248
2017-08-18T05:00:44.693Z,256
2017-08-18T05:01:44.670Z,264
2017-08-18T05:02:44.652Z,268
2017-08-18T05:03:44.642Z,268
2017-08-18T05:04:44.668Z,264
2017-08-18T05:05:44.323Z,268
2017-08-18T05:06:44.613Z,276
2017-08-18T05:07:44.572Z,276
2017-08-18T05:08:44.593Z,268
2017-08-18T05:09:44.561Z,248
2017-08-18T05:10:44.242Z,228
2017-08-18T05:11:44.521Z,212
2017-08-18T05:12:44.212Z,200
2017-08-18T05:13:44.243Z,192
2017-08-18T05:14:44.490Z,192
2017-08-18T05:15:44.510Z,192
2017-08-18T05:16:44.765Z,192
2017-08-18T05:17:44.813Z,192
2017-08-18T05:18:44.725Z,204
2017-08-18T05:19:44.437Z,216
2017-08-18T05:20:44.397Z,228
2017-08-18T05:21:44.751Z,232
2017-08-18T05:22:44.073Z,240
2017-08-18T05:23:44.431Z,252
2017-08-18T05:24:44.362Z,264
2017-08-18T05:25:44.738Z,284
2017-08-18T05:26:44.321Z,308
2017-08-18T05:27:44.372Z,328
2017-08-18T05:28:44.289Z,344
2017-08-18T05:29:44.282Z,344
2017-08-18T05:30:44.563Z,328
2017-08-18T05:31:44.555Z,316
2017-08-18T05:32:43.932Z,312
2017-08-18T05:33:44.228Z,312
2017-08-18T05:34:44.202Z,308
2017-08-18T05:35:44.551Z,300
2017-08-18T05:36:44.473Z,292
2017-08-18T05:37:44.152Z,296
2017-08-18T05:38:43.823Z,300
2017-08-18T05:39:43.861Z,308
2017-08-18T05:40:44.433Z,308
2017-08-18T05:41:44.403Z,288
2017-08-18T05:42:44.072Z,276
2017-08-18T05:43:43.807Z,272
2017-08-18T05:44:44.356Z,284
2017-08-18T05:45:43.735Z,304
2017-08-18T05:46:44.320Z,312
2017-08-18T05:47:43.991Z,316
2017-08-18T05:48:44.033Z,316
2017-08-18T05:49:44.322Z,316
2017-08-18T05:50:44.262Z,332
2017-08-18T05:51:44.252Z,360
2017-08-18T05:52:43.611Z,368
2017-08-18T05:53:43.941Z,368
2017-08-18T05:54:43.624Z,372
2017-08-18T05:55:44.180Z,380
2017-08-18T05:56:44.194Z,388
2017-08-18T05:57:43.554Z,392
2017-08-18T05:58:43.831Z,404
2017-08-18T05:59:44.132Z,436
2017-08-18T06:00:44.119Z,440
2017-08-18T06:01:43.540Z,436
2017-08-18T06:02:43.781Z,420
2017-08-18T06:03:43.784Z,428
2017-08-18T06:04:44.061Z,436
2017-08-18T06:05:43.722Z,460
2017-08-18T06:06:43.726Z,492
2017-08-18T06:07:43.704Z,528
2017-08-18T06:08:43.374Z,572
2017-08-18T06:09:43.370Z,592
2017-08-18T06:10:44.003Z,592
2017-08-18T06:11:43.952Z,600
2017-08-18T06:12:43.329Z,596
2017-08-18T06:13:43.923Z,616
2017-08-18T06:14:43.924Z,652
2017-08-18T06:15:43.906Z,664
2017-08-18T06:16:43.301Z,652
2017-08-18T06:17:43.634Z,624
2017-08-18T06:18:43.342Z,608
2017-08-18T06:19:43.312Z,604
2017-08-18T06:20:43.532Z,620
2017-08-18T06:21:43.213Z,636
2017-08-18T06:22:43.204Z,636
2017-08-18T06:23:43.481Z,612
2017-08-18T06:24:43.157Z,612
2017-08-18T06:25:43.438Z,620
2017-08-18T06:26:43.154Z,620
2017-08-18T06:27:43.415Z,624
2017-08-18T06:28:43.462Z,628
2017-08-18T06:29:43.486Z,640
2017-08-18T06:30:43.428Z,668
2017-08-18T06:31:43.439Z,652
2017-08-18T06:32:43.338Z,672
2017-08-18T06:33:43.634Z,756
2017-08-18T06:34:43.312Z,768
2017-08-18T06:35:43.325Z,748
2017-08-18T06:36:42.976Z,764
2017-08-18T06:37:43.581Z,752
2017-08-18T06:38:43.253Z,712
2017-08-18T06:39:43.523Z,664
2017-08-18T06:40:42.919Z,644
2017-08-18T06:41:43.203Z,752
2017-08-18T06:42:43.488Z,736
2017-08-18T06:43:43.198Z,796
2017-08-18T06:44:43.243Z,812
2017-08-18T06:45:43.299Z,824
2017-08-18T06:46:43.441Z,880
2017-08-18T06:47:43.176Z,944
2017-08-18T06:48:43.522Z,984
2017-08-18T06:49:43.396Z,992
2017-08-18T06:50:43.393Z,1000
2017-08-18T06:51:43.350Z,1016
2017-08-18T06:52:43.353Z,1020
2017-08-18T06:53:43.356Z,1036
2017-08-18T06:54:43.319Z,1072
2017-08-18T06:55:43.430Z,1096
2017-08-18T06:56:43.304Z,1092
2017-08-18T06:57:43.286Z,1084
2017-08-18T06:58:43.363Z,1092
2017-08-18T06:59:42.939Z,1124
2017-08-18T07:00:43.294Z,1184
2017-08-18T07:01:43.320Z,1280
2017-08-18T07:02:42.891Z,1400
2017-08-18T07:03:43.231Z,1492
2017-08-18T07:04:43.177Z,1552
2017-08-18T07:05:43.202Z,1648
2017-08-18T07:06:42.841Z,1748
2017-08-18T07:07:43.138Z,1844
2017-08-18T07:08:43.124Z,1916
2017-08-18T07:09:42.780Z,1976
2017-08-18T07:10:42.481Z,1976
2017-08-18T07:11:42.748Z,1972
2017-08-18T07:12:42.118Z,2020
2017-08-18T07:13:42.736Z,2120
2017-08-18T07:14:42.711Z,2260
2017-08-18T07:15:43.042Z,2376
2017-08-18T07:16:43.008Z,2536
2017-08-18T07:17:42.670Z,2724
2017-08-18T07:18:42.664Z,3008
2017-08-18T07:19:42.697Z,3252
2017-08-18T07:20:43.035Z,3448
2017-08-18T07:21:42.008Z,3208
2017-08-18T07:22:42.591Z,2936
2017-08-18T07:23:42.621Z,2608
2017-08-18T07:24:42.559Z,2648
2017-08-18T07:25:42.541Z,2668
2017-08-18T07:26:42.571Z,2528
2017-08-18T07:27:42.875Z,2480
2017-08-18T07:28:42.863Z,2540
2017-08-18T07:29:42.803Z,2456
2017-08-18T07:30:41.955Z,2352
2017-08-18T07:31:42.819Z,2320
2017-08-18T07:32:42.161Z,2320
2017-08-18T07:33:42.441Z,2356
2017-08-18T07:34:42.721Z,2416
2017-08-18T07:35:42.718Z,2516
2017-08-18T07:36:42.074Z,2800
2017-08-18T07:37:42.373Z,3036
2017-08-18T07:38:42.065Z,3096
2017-08-18T07:39:42.338Z,2976
2017-08-18T07:40:42.042Z,2804
2017-08-18T07:41:42.013Z,2860
2017-08-18T07:42:42.309Z,2964
2017-08-18T07:43:41.987Z,3092
2017-08-18T07:44:41.983Z,3416
2017-08-18T07:45:41.940Z,3820
2017-08-18T07:46:42.223Z,4508
2017-08-18T07:47:42.248Z,5056
2017-08-18T07:48:42.524Z,5152
2017-08-18T07:49:41.594Z,5096
2017-08-18T07:50:42.490Z,4888
2017-08-18T07:51:42.186Z,3524
2017-08-18T07:52:42.470Z,3144
2017-08-18T07:53:42.141Z,3216
2017-08-18T07:54:42.433Z,3636
2017-08-18T07:55:41.813Z,4272
2017-08-18T07:56:41.791Z,5588
2017-08-18T07:57:42.081Z,5368
2017-08-18T07:58:42.081Z,5720
2017-08-18T07:59:41.740Z,7220
2017-08-18T08:00:42.050Z,5932
2017-08-18T08:01:42.027Z,14060
2017-08-18T08:02:42.316Z,6408
2017-08-18T08:03:41.995Z,2976
2017-08-18T08:04:42.022Z,2652
2017-08-18T08:05:42.300Z,2552
2017-08-18T08:06:41.951Z,2632
2017-08-18T08:07:41.330Z,2832
2017-08-18T08:08:42.010Z,3112
2017-08-18T08:09:42.225Z,3328
2017-08-18T08:10:42.211Z,3516
2017-08-18T08:11:42.210Z,3628
2017-08-18T08:12:41.916Z,3756
2017-08-18T08:13:41.868Z,3680
2017-08-18T08:14:41.898Z,3684
2017-08-18T08:15:42.141Z,3788
2017-08-18T08:16:41.891Z,3916
2017-08-18T08:17:41.811Z,3872
2017-08-18T08:18:41.818Z,3396
2017-08-18T08:19:42.090Z,3372
2017-08-18T08:20:42.066Z,3444
2017-08-18T08:21:41.428Z,3972
2017-08-18T08:22:42.059Z,3328
2017-08-18T08:23:41.714Z,3040
2017-08-18T08:24:41.700Z,3156
2017-08-18T08:25:41.999Z,3460
2017-08-18T08:26:41.369Z,3884
2017-08-18T08:27:41.712Z,4348
2017-08-18T08:28:41.329Z,4796
2017-08-18T08:29:41.361Z,5008
2017-08-18T08:30:41.630Z,5116
2017-08-18T08:31:41.008Z,4852
2017-08-18T08:32:41.658Z,4468
2017-08-18T08:33:41.591Z,4088
2017-08-18T08:34:41.920Z,3844
2017-08-18T08:35:41.852Z,3772
2017-08-18T08:36:41.550Z,3736
2017-08-18T08:37:41.628Z,3592
2017-08-18T08:38:41.821Z,3416
2017-08-18T08:39:41.798Z,3264
2017-08-18T08:40:40.965Z,3216
2017-08-18T08:41:41.483Z,3252
2017-08-18T08:42:41.526Z,3308
2017-08-18T08:43:41.789Z,3324
2017-08-18T08:44:41.738Z,3336
2017-08-18T08:45:41.780Z,3412
2017-08-18T08:46:41.715Z,3544
2017-08-18T08:47:41.389Z,3708
2017-08-18T08:48:41.785Z,3796
2017-08-18T08:49:41.760Z,3776
2017-08-18T08:50:40.728Z,3780
2017-08-18T08:51:41.358Z,3844
2017-08-18T08:52:41.659Z,3868
2017-08-18T08:53:41.340Z,3816
2017-08-18T08:54:41.289Z,4104
2017-08-18T08:55:41.580Z,4432
2017-08-18T08:56:41.577Z,4964
2017-08-18T08:57:41.558Z,5572
2017-08-18T08:58:41.540Z,6224
2017-08-18T08:59:40.927Z,6536
2017-08-18T09:00:41.501Z,7032
2017-08-18T09:01:41.559Z,7012
2017-08-18T09:02:41.535Z,6848
2017-08-18T09:03:40.872Z,7096
2017-08-18T09:04:41.168Z,8384
2017-08-18T09:05:41.138Z,7888
2017-08-18T09:06:41.129Z,8572
2017-08-18T09:07:41.128Z,8468
2017-08-18T09:08:41.389Z,11300
2017-08-18T09:09:41.079Z,10544
2017-08-18T09:10:41.069Z,18240
2017-08-18T09:11:40.750Z,7764
2017-08-18T09:12:40.742Z,7428
2017-08-18T09:13:41.037Z,6584
2017-08-18T09:14:41.008Z,6696
2017-08-18T09:15:41.021Z,7044
2017-08-18T09:16:41.322Z,6260
2017-08-18T09:17:40.992Z,5976
2017-08-18T09:18:41.275Z,5804
2017-08-18T09:19:40.959Z,5836
2017-08-18T09:20:40.961Z,6356
2017-08-18T09:21:40.943Z,6372
2017-08-18T09:22:41.220Z,6400
2017-08-18T09:23:41.249Z,6596
2017-08-18T09:24:40.872Z,6648
2017-08-18T09:25:41.178Z,6744
2017-08-18T09:26:40.908Z,6552
2017-08-18T09:27:40.843Z,6176
2017-08-18T09:28:40.824Z,6080
2017-08-18T09:29:40.826Z,6492
2017-08-18T09:30:41.119Z,6964
2017-08-18T09:31:41.106Z,7056
2017-08-18T09:32:40.811Z,7264
2017-08-18T09:33:41.079Z,7956
2017-08-18T09:34:40.751Z,6452
2017-08-18T09:35:41.056Z,7412
2017-08-18T09:36:40.790Z,6136
2017-08-18T09:37:40.731Z,5540
2017-08-18T09:38:41.002Z,7480
2017-08-18T09:39:41.002Z,12832
2017-08-18T09:40:40.983Z,7888
2017-08-18T09:41:40.958Z,7072
2017-08-18T09:42:40.952Z,6280
2017-08-18T09:43:40.950Z,6496
2017-08-18T09:44:40.919Z,6504
2017-08-18T09:45:40.630Z,6460
2017-08-18T09:46:40.612Z,6988
2017-08-18T09:47:40.902Z,6680
2017-08-18T09:48:40.881Z,6124
2017-08-18T09:49:40.853Z,5852
2017-08-18T09:50:40.867Z,5732
2017-08-18T09:51:40.223Z,5776
2017-08-18T09:52:40.929Z,5780
2017-08-18T09:53:40.517Z,5716
2017-08-18T09:54:40.859Z,5656
2017-08-18T09:55:40.824Z,5544
2017-08-18T09:56:40.806Z,5624
2017-08-18T09:57:40.760Z,5556
2017-08-18T09:58:40.753Z,5496
2017-08-18T09:59:40.742Z,5128
2017-08-18T10:00:40.849Z,4988
2017-08-18T10:01:40.403Z,4800
2017-08-18T10:02:39.906Z,4448
2017-08-18T10:03:40.373Z,4232
2017-08-18T10:04:40.408Z,4104
2017-08-18T10:05:40.664Z,4028
2017-08-18T10:06:40.641Z,3952
2017-08-18T10:07:40.037Z,3868
2017-08-18T10:08:40.325Z,3808
2017-08-18T10:09:40.680Z,3724
2017-08-18T10:10:40.601Z,3676
2017-08-18T10:11:40.584Z,3664
2017-08-18T10:12:40.272Z,3664
2017-08-18T10:13:40.559Z,3600
2017-08-18T10:14:40.260Z,3604
2017-08-18T10:15:40.210Z,3768
2017-08-18T10:16:39.957Z,3776
2017-08-18T10:17:40.482Z,3708
2017-08-18T10:18:40.196Z,3592
2017-08-18T10:19:40.467Z,3540
2017-08-18T10:20:40.154Z,3596
2017-08-18T10:21:40.460Z,3708
2017-08-18T10:22:40.470Z,3920
2017-08-18T10:23:40.448Z,4016
2017-08-18T10:24:40.119Z,4068
2017-08-18T10:25:40.494Z,4092
2017-08-18T10:26:40.391Z,4112
2017-08-18T10:27:40.357Z,4104
2017-08-18T10:28:40.349Z,4200
2017-08-18T10:29:40.421Z,4244
2017-08-18T10:30:40.349Z,4224
2017-08-18T10:31:40.009Z,4132
2017-08-18T10:32:40.317Z,4116
2017-08-18T10:33:39.968Z,4216
2017-08-18T10:34:40.261Z,4412
2017-08-18T10:35:40.256Z,4704
2017-08-18T10:36:40.243Z,4924
2017-08-18T10:37:39.926Z,5024
2017-08-18T10:38:39.909Z,5104
2017-08-18T10:39:39.910Z,5128
2017-08-18T10:40:40.199Z,5076
2017-08-18T10:41:39.866Z,4996
2017-08-18T10:42:40.178Z,4788
2017-08-18T10:43:40.160Z,4656
2017-08-18T10:44:40.152Z,4652
2017-08-18T10:45:40.139Z,4524
2017-08-18T10:46:40.121Z,4412
2017-08-18T10:47:39.484Z,3944
2017-08-18T10:48:40.098Z,4060
2017-08-18T10:49:39.779Z,3960
2017-08-18T10:50:40.067Z,3320
2017-08-18T10:51:40.098Z,3044
2017-08-18T10:52:40.066Z,2652
2017-08-18T10:53:40.039Z,2184
2017-08-18T10:54:40.031Z,2088
2017-08-18T10:55:39.988Z,2160
2017-08-18T10:56:39.999Z,2172
2017-08-18T10:57:39.683Z,2292
2017-08-18T10:58:39.985Z,2440
2017-08-18T10:59:39.936Z,2520
2017-08-18T11:00:39.030Z,2396
2017-08-18T11:01:39.949Z,2272
2017-08-18T11:02:39.592Z,2404
2017-08-18T11:03:39.601Z,2484
2017-08-18T11:04:39.639Z,2520
2017-08-18T11:05:39.902Z,2444
2017-08-18T11:06:39.561Z,2304
2017-08-18T11:07:39.240Z,2232
2017-08-18T11:08:39.870Z,2176
2017-08-18T11:09:39.594Z,2152
2017-08-18T11:10:39.219Z,2028
2017-08-18T11:11:39.630Z,1976
2017-08-18T11:12:39.497Z,1956
2017-08-18T11:13:39.173Z,1984
2017-08-18T11:14:39.150Z,2120
2017-08-18T11:15:39.479Z,2300
2017-08-18T11:16:39.755Z,2444
2017-08-18T11:17:39.799Z,2588
2017-08-18T11:18:39.729Z,2652
2017-08-18T11:19:39.399Z,2700
2017-08-18T11:20:39.403Z,2664
2017-08-18T11:21:39.366Z,2588
2017-08-18T11:22:39.032Z,2600
2017-08-18T11:23:39.406Z,2628
2017-08-18T11:24:39.629Z,2612
2017-08-18T11:25:39.011Z,2508
2017-08-18T11:26:38.989Z,2560
2017-08-18T11:27:39.617Z,2568
2017-08-18T11:28:39.701Z,2504
2017-08-18T11:29:39.585Z,2416
2017-08-18T11:30:39.600Z,2296
2017-08-18T11:31:39.240Z,2252
2017-08-18T11:32:38.938Z,2252
2017-08-18T11:33:39.507Z,2240
2017-08-18T11:34:39.519Z,2076
2017-08-18T11:35:39.501Z,1864
2017-08-18T11:36:39.478Z,1856
2017-08-18T11:37:39.460Z,1724
2017-08-18T11:38:39.480Z,1816
2017-08-18T11:39:38.828Z,2072
2017-08-18T11:40:39.451Z,2016
2017-08-18T11:41:39.441Z,1696
2017-08-18T11:42:39.400Z,1428
2017-08-18T11:43:39.122Z,1388
2017-08-18T11:44:39.390Z,1828
2017-08-18T11:45:39.071Z,2240
2017-08-18T11:46:39.061Z,2128
2017-08-18T11:47:39.027Z,2000
2017-08-18T11:48:39.329Z,2232
2017-08-18T11:49:39.088Z,2212
2017-08-18T11:50:39.300Z,1792
2017-08-18T11:51:38.980Z,1744
2017-08-18T11:52:38.681Z,2184
2017-08-18T11:53:39.250Z,2412
2017-08-18T11:54:38.630Z,2400
2017-08-18T11:55:39.233Z,2660
2017-08-18T11:56:38.620Z,2800
2017-08-18T11:57:38.626Z,2744
2017-08-18T11:58:38.639Z,2564
2017-08-18T11:59:39.176Z,2528
2017-08-18T12:00:39.182Z,2612
2017-08-18T12:01:39.171Z,2652
2017-08-18T12:02:39.159Z,2604
2017-08-18T12:03:38.544Z,2532
2017-08-18T12:04:39.139Z,2428
2017-08-18T12:05:39.116Z,2432
2017-08-18T12:06:38.794Z,2468
2017-08-18T12:07:38.800Z,2476
2017-08-18T12:08:38.781Z,2548
2017-08-18T12:09:39.050Z,2636
2017-08-18T12:10:38.731Z,2732
2017-08-18T12:11:39.046Z,3092
2017-08-18T12:12:38.719Z,3604
2017-08-18T12:13:39.022Z,4024
2017-08-18T12:14:38.696Z,3928
2017-08-18T12:15:38.374Z,3708
2017-08-18T12:16:38.766Z,3812
2017-08-18T12:17:38.670Z,3648
2017-08-18T12:18:38.695Z,3052
2017-08-18T12:19:38.651Z,2764
2017-08-18T12:20:38.620Z,2924
2017-08-18T12:21:38.606Z,3268
2017-08-18T12:22:38.290Z,3792
2017-08-18T12:23:38.587Z,4272
2017-08-18T12:24:38.705Z,4460
2017-08-18T12:25:38.572Z,4248
2017-08-18T12:26:38.996Z,3856
2017-08-18T12:27:38.980Z,3560
2017-08-18T12:28:38.524Z,3472
2017-08-18T12:29:38.825Z,3492
2017-08-18T12:30:38.517Z,3328
2017-08-18T12:31:38.174Z,3240
2017-08-18T12:32:38.495Z,3128
2017-08-18T12:33:38.363Z,3024
2017-08-18T12:34:38.756Z,2932
2017-08-18T12:35:38.766Z,2876
2017-08-18T12:36:38.501Z,2884
2017-08-18T12:37:38.722Z,2940
2017-08-18T12:38:38.791Z,3016
2017-08-18T12:39:39.000Z,2956
2017-08-18T12:40:38.692Z,2848
2017-08-18T12:41:38.698Z,2960
2017-08-18T12:42:38.664Z,3016
2017-08-18T12:43:38.373Z,3104
2017-08-18T12:44:38.692Z,3252
2017-08-18T12:45:38.633Z,3344
2017-08-18T12:46:38.609Z,3400
2017-08-18T12:47:38.632Z,3452
2017-08-18T12:48:38.570Z,3592
2017-08-18T12:49:38.591Z,3520
2017-08-18T12:50:38.362Z,3444
2017-08-18T12:51:38.544Z,3160
2017-08-18T12:52:38.552Z,2908
2017-08-18T12:53:38.537Z,2764
2017-08-18T12:54:38.602Z,2792
2017-08-18T12:55:38.597Z,2988
2017-08-18T12:56:38.466Z,3228
2017-08-18T12:57:38.472Z,3392
2017-08-18T12:58:38.504Z,3360
2017-08-18T12:59:38.454Z,3296
2017-08-18T13:00:38.112Z,3176
2017-08-18T13:01:38.516Z,3156
2017-08-18T13:02:38.086Z,3200
2017-08-18T13:03:38.116Z,3280
2017-08-18T13:04:38.414Z,3320
2017-08-18T13:05:38.045Z,3356
2017-08-18T13:06:38.352Z,3416
2017-08-18T13:07:38.354Z,3352
2017-08-18T13:08:38.348Z,3236
2017-08-18T13:09:37.993Z,3076
2017-08-18T13:10:38.312Z,3040
2017-08-18T13:11:38.296Z,3220
2017-08-18T13:12:38.080Z,3372
2017-08-18T13:13:37.927Z,3516
2017-08-18T13:14:37.931Z,3580
2017-08-18T13:15:38.244Z,3556
2017-08-18T13:16:37.914Z,3712
2017-08-18T13:17:37.873Z,3936
2017-08-18T13:18:38.178Z,4128
2017-08-18T13:19:37.900Z,4464
2017-08-18T13:20:38.152Z,4696
2017-08-18T13:21:38.145Z,4924
2017-08-18T13:22:37.886Z,5232
2017-08-18T13:23:38.113Z,5524
2017-08-18T13:24:37.836Z,5724
2017-08-18T13:25:37.781Z,5812
2017-08-18T13:26:38.070Z,5836
2017-08-18T13:27:38.071Z,5772
2017-08-18T13:28:38.054Z,5600
2017-08-18T13:29:38.062Z,5352
2017-08-18T13:30:37.731Z,5160
2017-08-18T13:31:38.002Z,5124
2017-08-18T13:32:37.998Z,5212
2017-08-18T13:33:37.984Z,5280
2017-08-18T13:34:37.957Z,5240
2017-08-18T13:35:38.199Z,5200
2017-08-18T13:36:37.962Z,5116
2017-08-18T13:37:37.953Z,5044
2017-08-18T13:38:37.925Z,4852
2017-08-18T13:39:37.888Z,4684
2017-08-18T13:40:37.898Z,4596
2017-08-18T13:41:37.585Z,4428
2017-08-18T13:42:37.872Z,4328
2017-08-18T13:43:37.892Z,4284
2017-08-18T13:44:37.554Z,4224
2017-08-18T13:45:37.932Z,4064
2017-08-18T13:46:37.523Z,3840
2017-08-18T13:47:37.512Z,3652
2017-08-18T13:48:37.485Z,3568
2017-08-18T13:49:37.484Z,3592